Carson Valley, Nevada Weather observations

Data are for 10 minute period ending at time listed.
 Day   Time   Solar   Ave.   Ave.  Ave.  Vector  Max.   Baro.   Total    
  of    of     Rad.   Air    Rel.  Wind   Wind   Wind  Press.  Precip.   
Year   Day            Temp.  Hum.  Speed  Dir.   Gust                    
2015   (PST)  Kw/m2    F      %     mph   deg.    mph    mb.     in.     
-------------------------------------------------------------------------
 242    0:50   0.00   51.8    67    2.0   292     3.7   856.8    0.00 
 242    1:00   0.00   52.9    65    1.3   334     2.5   856.8    0.00 
 242    1:10   0.00   51.5    65    1.5    90     3.4   856.7    0.00 
 242    1:20   0.00   52.3    64    2.4    69     5.6   856.7    0.00 
 242    1:30   0.00   51.8    63    3.6    95     4.5   856.7    0.00 
 242    1:40   0.00   51.9    63    3.0    94     5.7   856.8    0.00 
 242    1:50   0.00   48.8    69    4.7    82     6.7   856.8    0.00 
 242    2:00   0.00   48.5    71    4.4    37     5.8   856.7    0.00 
 242    2:10   0.00   47.9    76    3.4   300     5.0   856.8    0.00 
 242    2:20   0.00   48.2    76    0.7   264     2.9   856.7    0.00 
 242    2:30   0.00   48.0    73    2.4   114     4.2   856.7    0.00 
 242    2:40   0.00   47.2    75    2.6   140     4.1   856.7    0.00 
 242    2:50   0.00   46.0    78    2.7   138     4.3   856.7    0.00 
 242    3:00   0.00   45.3    80    1.4   188     3.4   856.8    0.00 
 242    3:10   0.00   46.1    79    4.2   138     5.5   856.8    0.00 
 242    3:20   0.00   46.6    81    1.9   164     4.7   856.8    0.00 
 242    3:30   0.00   49.5    76    2.7   207     4.7   856.9    0.00 
 242    3:40   0.00   50.0    75    2.9   166     5.0   856.8    0.00 
 242    3:50   0.00   51.0    73    3.6   153     5.4   856.8    0.00 
 242    4:00   0.00   49.9    74    1.4   354     3.7   856.8    0.00 
 242    4:10   0.00   48.3    76    1.7   130     4.5   856.8    0.00 
 242    4:20   0.00   48.1    76    3.4    93     7.0   856.8    0.00 
 242    4:30   0.00   46.1    80    2.9   139     4.7   856.8    0.00 
 242    4:40   0.00   44.8    84    4.6   114     7.1   856.7    0.00 
 242    4:50   0.00   45.7    84    3.4   210     5.5   856.7    0.00 
 242    5:00   0.00   46.0    83    2.0   210     3.1   856.7    0.00 
 242    5:10   0.00   45.6    82    2.7   142     3.6   856.6    0.00 
 242    5:20   0.00   44.3    82    1.7   122     4.5   856.5    0.00 
 242    5:30   0.00   42.6    84    4.1    60     5.8   856.6    0.00 
 242    5:40   0.01   42.3    87    3.8    75     5.8   856.7    0.00 
 242    5:50   0.03   44.5    87    1.9   353     5.6   856.7    0.00 
 242    6:00   0.07   45.2    83    1.9   337     5.0   856.8    0.00 
 242    6:10   0.12   46.2    85    2.6     4     5.2   856.8    0.00 
 242    6:20   0.16   48.7    83    2.9    14     5.3   856.9    0.00 
 242    6:30   0.21   52.1    80    1.7    73     3.9   857.0    0.00 
 242    6:40   0.25   54.6    76    1.8   312     3.2   857.1    0.00 
 242    6:50   0.28   55.6    75    1.6   264     2.5   857.2    0.00 
 242    7:00   0.21   57.1    73    2.0   109     4.1   857.2    0.00 
 242    7:10   0.24   59.7    70    1.1    65     2.9   857.3    0.00 
 242    7:20   0.23   61.5    69    2.2   322     3.6   857.5    0.00 
 242    7:30   0.26   61.4    73    2.7   233     8.0   857.6    0.00 
 242    7:40   0.25   62.0    67    2.2   203     5.8   857.7    0.00 
 242    7:50   0.30   65.6    55    2.1    11     5.4   857.8    0.00 
 242    8:00   0.27   68.0    46    4.0    44     6.9   857.9    0.00 
 242    8:10   0.32   68.8    44    4.3    43     7.4   857.9    0.00 
 242    8:20   0.48   70.5    37    4.4    66     6.9   858.0    0.00 
 242    8:30   0.59   71.4    35    3.7    56     6.8   858.0    0.00 
 242    8:40   0.47   72.0    36    2.8    56     6.1   858.0    0.00 
 242    8:50   0.61   73.1    34    2.3    62     7.5   858.1    0.00 
 242    9:00   0.75   74.1    33    2.7    60     6.4   858.2    0.00 
 242    9:10   0.57   73.9    33    4.0    82     9.1   858.2    0.00 
 242    9:20   0.44   72.5    33    5.2   109     9.3   858.3    0.00 
 242    9:30   0.47   72.2    34    4.4   108     9.1   858.3    0.00 
 242    9:40   0.72   73.3    32    4.8    91     8.6   858.4    0.00 
 242    9:50   0.72   74.4    31    3.9   114    10.3   858.4    0.00 
 242   10:00   0.76   74.9    29    4.5    91     9.0   858.3    0.00 
 242   10:10   0.80   75.1    29    3.9   170     9.3   858.2    0.00 
 242   10:20   0.81   75.5    32    2.8   212     5.7   858.2    0.00 
 242   10:30   0.82   75.5    31    3.4   181     7.3   858.1    0.00 
 242   10:40   0.83   76.4    29    6.0    94    11.4   857.9    0.00 
 242   10:50   0.84   76.7    28    4.6   160     8.8   857.8    0.00 
 242   11:00   0.85   76.4    31    5.6   203    10.2   857.7    0.00 
 242   11:10   0.85   75.9    32    3.8   301     9.5   857.6    0.00 
 242   11:20   0.86   76.1    31    5.7   320    14.2   857.6    0.00 
 242   11:30   0.86   77.0    27    3.3   309    11.1   857.5    0.00 
 242   11:40   0.88   76.9    30    7.0   241    17.8   857.4    0.00 
 242   11:50   0.88   77.6    29    4.3   229    11.6   857.3    0.00 
 242   12:00   0.87   78.8    23    4.3   153    16.3   857.2    0.00 
 242   12:10   0.89   79.1    23    3.0   225     5.8   857.2    0.00 
 242   12:20   0.87   78.2    27    3.5   325     8.8   857.1    0.00 
 242   12:30   0.86   78.3    29    5.0   258    12.6   857.0    0.00 
 242   12:40   0.84   77.5    27    8.9   286    16.1   856.9    0.00 
 242   12:50   0.85   77.7    28    7.6   286    15.1   856.9    0.00 
 242   13:00   0.84   78.6    27    9.2   232    19.5   856.9    0.00 
 242   13:10   0.83   77.3    28   14.6   278    23.8   856.9    0.00 
 242   13:20   0.83   77.1    29   12.5   266    19.6   856.9    0.00 
 242   13:30   0.83   77.1    27   14.0   277    23.1   856.8    0.00 
 242   13:40   0.85   77.4    28   12.0   276    22.1   856.7    0.00 
 242   13:50   0.82   77.6    27   13.2   275    20.0   856.7    0.00 
 242   14:00   0.80   77.4    28   13.5   279    22.4   856.7    0.00 
 242   14:10   0.88   77.4    28   14.9   278    26.8   856.7    0.00 
 242   14:20   0.78   76.9    26   16.4   262    23.9   856.6    0.00 
 242   14:30   0.80   77.0    26   16.9   266    25.1   856.5    0.00 
 242   14:40   0.78   77.3    26   14.0   266    25.1   856.4    0.00 
 242   14:50   0.72   77.0    25   15.4   261    23.3   856.4    0.00 
 242   15:00   0.64   76.6    26   14.5   264    23.8   856.4    0.00 
 242   15:10   0.60   76.3    27   13.9   284    21.2   856.4    0.00 
 242   15:20   0.56   75.8    28   14.6   281    22.1   856.4    0.00 
 242   15:30   0.52   75.4    28   14.4   272    23.6   856.2    0.00 
 242   15:40   0.49   75.4    28   13.6   266    20.0   856.1    0.00 
 242   15:50   0.46   75.2    28   12.1   269    20.9   856.2    0.00 
 242   16:00   0.43   74.8    29   12.6   287    18.6   856.3    0.00 
 242   16:10   0.41   74.4    28   13.0   277    18.6   856.4    0.00 
 242   16:20   0.38   74.0    28   14.8   295    23.1   856.5    0.00 
 242   16:30   0.34   73.5    29   14.4   278    19.8   856.5    0.00 
 242   16:40   0.31   73.3    28   15.3   269    21.5   856.3    0.00 
 242   16:50   0.28   73.0    27   16.7   279    25.3   856.2    0.00 
 242   17:00   0.24   72.5    27   15.2   276    25.8   856.2    0.00 
 242   17:10   0.21   72.0    27   14.3   275    21.0   856.1    0.00 
 242   17:20   0.18   71.5    26   14.6   275    22.8   856.1    0.00 
 242   17:30   0.15   71.6    25   15.2   271    21.9   856.2    0.00 
 242   17:40   0.12   71.0    24   14.6   276    20.4   856.1    0.00 
 242   17:50   0.07   70.1    25   13.1   278    18.5   856.1    0.00 
 242   18:00   0.03   69.8    24   16.3   284    22.5   856.1    0.00 
 242   18:10   0.02   69.6    24   12.4   284    23.1   856.1    0.00 
 242   18:20   0.01   69.7    24   15.1   281    25.7   856.1    0.00 
 242   18:30   0.01   69.3    24   12.4   283    20.2   856.3    0.00 
 242   18:40   0.00   67.8    26    8.4   294    12.3   856.4    0.00 
 242   18:50   0.00   67.8    26    8.7   297    14.6   856.5    0.00 
 242   19:00   0.00   66.6    27    6.1   315    12.8   856.5    0.00 
 242   19:10   0.00   67.2    27    9.0   306    15.1   856.6    0.00 
 242   19:20   0.00   67.4    27    3.9   313    12.1   856.7    0.00 
 242   19:30   0.00   66.6    27    2.8   270     6.0   857.0    0.00 
 242   19:40   0.00   65.7    29    7.3   268    13.4   857.0    0.00 
 242   19:50   0.00   64.9    31    8.2   263    11.3   857.1    0.00 
 242   20:00   0.00   65.3    30    7.9   270    13.9   857.1    0.00 
 242   20:10   0.00   65.2    30    8.2   276    10.7   857.2    0.00 
 242   20:20   0.00   64.7    31    6.2   272    10.4   857.3    0.00 
 242   20:30   0.00   62.9    34    4.2   242     6.9   857.4    0.00 
 242   20:40   0.00   60.9    37    3.4   274     5.1   857.5    0.00 
 242   20:50   0.00   60.3    37    3.1   243     5.1   857.5    0.00 
 242   21:00   0.00   62.5    35    4.7   249     8.1   857.5    0.00 
 242   21:10   0.00   60.3    36    1.5   324     4.1   857.5    0.00 
 242   21:20   0.00   60.0    35    2.7   260     5.4   857.5    0.00 
 242   21:30   0.00   58.5    42    2.8   167     4.7   857.5    0.00 
 242   21:40   0.00   57.3    44    2.8   173     4.2   857.4    0.00 
 242   21:50   0.00   55.2    49    1.1   306     2.9   857.4    0.00 
 242   22:00   0.00   54.0    50    2.5    16     5.0   857.4    0.00 
 242   22:10   0.00   52.6    50    3.4    92     5.6   857.4    0.00 
 242   22:20   0.00   50.6    57    3.4   256     5.3   857.4    0.00 
 242   22:30   0.00   48.7    63    3.5   281     6.4   857.4    0.00 
 242   22:40   0.00   50.7    55    0.7   284     2.1   857.3    0.00 
 242   22:50   0.00   52.8    49    2.5    77     3.7   857.3    0.00 
 242   23:00   0.00   48.1    58    5.2    76     6.3   857.4    0.00 
 242   23:10   0.00   45.7    62    4.1    64     5.4   857.5    0.00 
 242   23:20   0.00   47.6    54    3.1    80     5.0   857.5    0.00 
 242   23:30   0.00   46.7    61    4.0   313     5.4   857.5    0.00 
 242   23:40   0.00   45.5    66    2.7   342     3.6   857.5    0.00 
 242   23:50   0.00   45.9    62    1.8   113     4.1   857.5    0.00 
 243    0:00   0.00   45.0    66    1.8   198     3.8   857.5    0.00 
 243    0:10   0.00   44.3    69    1.0   228     2.0   857.6    0.00 
 243    0:20   0.00   45.7    66    1.4   177     2.6   857.6    0.00 
 243    0:30   0.00   45.7    67    2.6   185     3.8   857.5    0.00 
 243    0:40   0.00   43.2    72    2.7   184     3.9   857.5    0.00 

Return to Carson Valley graphs page.


Western Regional Climate Center,wrcc@dri.edu